createdAt,value
2023-03-18T00:01:07.763Z,8.69
2023-03-18T00:03:37.321Z,8.72
2023-03-18T00:06:08.693Z,8.75
2023-03-18T00:08:37.635Z,8.78
2023-03-18T00:11:06.253Z,8.80
2023-03-18T00:13:34.739Z,8.81
2023-03-18T00:16:03.118Z,8.81
2023-03-18T00:18:31.693Z,8.82
2023-03-18T00:21:01.264Z,8.84
2023-03-18T00:23:33.567Z,8.86
2023-03-18T00:26:02.791Z,8.90
2023-03-18T00:28:31.646Z,8.94
2023-03-18T00:31:08.832Z,8.98
2023-03-18T00:33:37.947Z,9.03
2023-03-18T00:36:12.645Z,9.07
2023-03-18T00:38:43.116Z,9.08
2023-03-18T00:41:15.927Z,9.10
2023-03-18T00:43:52.930Z,9.15
2023-03-18T00:46:23.477Z,9.20
2023-03-18T00:48:52.359Z,9.24
2023-03-18T00:51:23.085Z,9.27
2023-03-18T00:53:54.712Z,9.29
2023-03-18T00:56:26.485Z,9.29
2023-03-18T00:58:54.804Z,9.30
2023-03-18T01:01:24.510Z,9.31
2023-03-18T01:03:52.779Z,9.33
2023-03-18T01:06:23.265Z,9.37
2023-03-18T01:08:53.863Z,9.40
2023-03-18T01:11:22.840Z,9.42
2023-03-18T01:13:51.583Z,9.44
2023-03-18T01:16:21.019Z,9.48
2023-03-18T01:18:49.900Z,9.48
2023-03-18T01:21:18.529Z,9.48
2023-03-18T01:23:54.274Z,9.48
2023-03-18T01:26:23.397Z,9.47
2023-03-18T01:28:51.687Z,9.47
2023-03-18T01:31:19.917Z,9.47
2023-03-18T01:33:49.919Z,9.51
2023-03-18T01:36:18.608Z,9.52
2023-03-18T01:39:01.453Z,9.47
2023-03-18T01:41:30.165Z,9.48
2023-03-18T01:44:02.334Z,9.47
2023-03-18T01:46:35.981Z,9.45
2023-03-18T01:49:07.633Z,9.46
2023-03-18T01:51:36.153Z,9.44
2023-03-18T01:54:07.884Z,9.45
2023-03-18T01:56:37.418Z,9.45
2023-03-18T01:59:06.381Z,9.46
2023-03-18T02:01:39.252Z,9.46
2023-03-18T02:04:10.293Z,9.45
2023-03-18T02:06:41.344Z,9.43
2023-03-18T02:09:12.123Z,9.41
2023-03-18T02:11:43.824Z,9.38
2023-03-18T02:14:13.909Z,9.36
2023-03-18T02:16:45.526Z,9.34
2023-03-18T02:19:17.232Z,9.32
2023-03-18T02:21:51.966Z,9.31
2023-03-18T02:24:28.832Z,9.32
2023-03-18T02:27:00.048Z,9.36
2023-03-18T02:29:40.080Z,9.36
2023-03-18T02:32:15.470Z,9.35
2023-03-18T02:34:44.227Z,9.37
2023-03-18T02:37:12.606Z,9.38
2023-03-18T02:39:43.649Z,9.37
2023-03-18T02:42:14.063Z,9.32
2023-03-18T02:44:49.548Z,9.30
2023-03-18T02:47:41.157Z,9.28
2023-03-18T02:50:09.859Z,9.26
2023-03-18T02:52:38.886Z,9.23
2023-03-18T02:55:08.912Z,9.26
2023-03-18T02:57:37.517Z,9.30
2023-03-18T03:00:09.270Z,9.35
2023-03-18T03:02:38.932Z,9.31
2023-03-18T03:05:09.181Z,9.28
2023-03-18T03:07:37.877Z,9.28
2023-03-18T03:10:09.431Z,9.27
2023-03-18T03:12:39.978Z,9.27
2023-03-18T03:15:13.551Z,9.30
2023-03-18T03:17:48.574Z,9.32
2023-03-18T03:20:19.037Z,9.30
2023-03-18T03:22:47.356Z,9.29
2023-03-18T03:25:19.504Z,9.28
2023-03-18T03:27:48.274Z,9.22
2023-03-18T03:30:18.410Z,9.17
2023-03-18T03:32:48.020Z,9.13
2023-03-18T03:35:18.828Z,9.12
2023-03-18T03:37:48.023Z,9.10
2023-03-18T03:40:20.486Z,9.08
2023-03-18T03:42:51.038Z,9.15
2023-03-18T03:45:20.536Z,9.16
2023-03-18T03:47:49.052Z,9.14
2023-03-18T03:50:20.198Z,9.19
2023-03-18T03:52:48.608Z,9.18
2023-03-18T03:55:18.173Z,9.15
2023-03-18T03:57:46.600Z,9.14
2023-03-18T04:00:16.622Z,9.09
2023-03-18T04:02:52.674Z,9.02
2023-03-18T04:05:23.585Z,8.99
2023-03-18T04:07:52.460Z,8.93
2023-03-18T04:10:27.462Z,8.95
2023-03-18T04:12:58.779Z,9.04
2023-03-18T04:15:29.315Z,9.08
2023-03-18T04:18:05.012Z,9.04
2023-03-18T04:20:34.340Z,9.02
2023-03-18T04:23:04.693Z,9.00
2023-03-18T04:25:33.320Z,9.01
2023-03-18T04:28:02.562Z,9.01
2023-03-18T04:30:32.627Z,9.00
2023-03-18T04:33:07.358Z,9.00
2023-03-18T04:35:36.491Z,9.01
2023-03-18T04:38:04.847Z,9.07
2023-03-18T04:40:34.610Z,9.03
2023-03-18T04:43:04.321Z,9.02
2023-03-18T04:45:34.068Z,9.01
2023-03-18T04:48:04.088Z,8.93
2023-03-18T04:50:39.858Z,8.87
2023-03-18T04:53:11.184Z,8.94
2023-03-18T04:55:40.820Z,8.94
2023-03-18T04:58:11.372Z,8.90
2023-03-18T05:00:45.028Z,8.90
2023-03-18T05:03:23.641Z,8.88
2023-03-18T05:05:53.361Z,8.91
2023-03-18T05:08:27.388Z,8.89
2023-03-18T05:10:56.378Z,8.78
2023-03-18T05:13:24.534Z,8.78
2023-03-18T05:15:53.939Z,8.79
2023-03-18T05:18:23.050Z,8.81
2023-03-18T05:20:54.923Z,8.78
2023-03-18T05:23:31.320Z,8.74
2023-03-18T05:25:59.958Z,8.70
2023-03-18T05:28:30.121Z,8.68
2023-03-18T05:31:15.480Z,8.67
2023-03-18T05:33:45.181Z,8.68
2023-03-18T05:36:16.055Z,8.66
2023-03-18T05:38:57.634Z,8.63
2023-03-18T05:41:26.322Z,8.64
2023-03-18T05:43:57.268Z,8.66
2023-03-18T05:46:27.150Z,8.68
2023-03-18T05:49:17.981Z,8.76
2023-03-18T05:51:58.532Z,8.78
2023-03-18T05:54:39.472Z,8.87
2023-03-18T05:57:09.158Z,8.93
2023-03-18T05:59:38.220Z,8.97
2023-03-18T06:02:07.027Z,9.00
2023-03-18T06:04:35.272Z,9.07
2023-03-18T06:07:07.856Z,9.15
2023-03-18T06:09:36.244Z,9.19
2023-03-18T06:12:05.431Z,9.23
2023-03-18T06:14:34.023Z,9.30
2023-03-18T06:17:03.996Z,9.41
2023-03-18T06:19:35.465Z,9.43
2023-03-18T06:22:07.945Z,9.47
2023-03-18T06:24:39.387Z,9.50
2023-03-18T06:27:12.464Z,9.55
2023-03-18T06:29:44.819Z,9.69
2023-03-18T06:32:16.196Z,9.73
2023-03-18T06:34:52.372Z,9.79
2023-03-18T06:37:24.673Z,9.84
2023-03-18T06:39:55.139Z,9.89
2023-03-18T06:42:23.957Z,9.92
2023-03-18T06:45:02.035Z,9.97
2023-03-18T06:47:43.051Z,10.02
2023-03-18T06:50:13.610Z,10.03
2023-03-18T06:52:43.716Z,10.00
2023-03-18T06:55:16.721Z,10.02
2023-03-18T06:57:46.831Z,10.05
2023-03-18T07:00:19.839Z,10.30
2023-03-18T07:02:49.667Z,10.75
2023-03-18T07:05:20.572Z,11.25
2023-03-18T07:07:50.913Z,11.68
2023-03-18T07:10:21.166Z,12.09
2023-03-18T07:12:52.308Z,12.21
2023-03-18T07:15:23.220Z,12.17
2023-03-18T07:17:55.601Z,12.43
2023-03-18T07:20:24.010Z,12.50
2023-03-18T07:22:53.333Z,12.69
2023-03-18T07:25:23.061Z,12.92
2023-03-18T07:27:52.435Z,13.12
2023-03-18T07:30:22.030Z,13.27
2023-03-18T07:32:50.823Z,13.28
2023-03-18T07:35:18.908Z,13.42
2023-03-18T07:37:47.253Z,13.48
2023-03-18T07:40:17.050Z,13.62
2023-03-18T07:42:46.587Z,13.66
2023-03-18T07:45:14.573Z,13.84
2023-03-18T07:47:43.329Z,13.93
2023-03-18T07:50:12.310Z,13.94
2023-03-18T07:52:42.302Z,14.15
2023-03-18T07:55:10.632Z,14.17
2023-03-18T07:57:40.719Z,14.36
2023-03-18T08:00:10.670Z,14.53
2023-03-18T08:02:42.597Z,14.46
2023-03-18T08:05:13.584Z,14.53
2023-03-18T08:07:41.730Z,14.51
2023-03-18T08:10:10.539Z,14.78
2023-03-18T08:12:52.090Z,14.83
2023-03-18T08:15:22.492Z,14.88
2023-03-18T08:17:51.140Z,15.13
2023-03-18T08:20:21.488Z,15.03
2023-03-18T08:22:53.834Z,14.81
2023-03-18T08:25:23.530Z,15.01
2023-03-18T08:27:54.675Z,14.98
2023-03-18T08:30:25.626Z,15.09
2023-03-18T08:32:53.931Z,15.09
2023-03-18T08:35:23.795Z,14.91
2023-03-18T08:38:10.980Z,15.04
2023-03-18T08:40:57.946Z,14.97
2023-03-18T08:43:28.563Z,14.96
2023-03-18T08:45:58.913Z,14.88
2023-03-18T08:48:27.871Z,14.93
2023-03-18T08:50:55.910Z,15.07
2023-03-18T08:53:23.991Z,15.12
2023-03-18T08:55:52.381Z,15.11
2023-03-18T08:58:20.820Z,15.23
2023-03-18T09:00:52.445Z,15.16
2023-03-18T09:03:21.706Z,15.19
2023-03-18T09:05:49.908Z,15.20
2023-03-18T09:08:18.317Z,15.51
2023-03-18T09:10:46.761Z,15.41
2023-03-18T09:13:15.468Z,15.38
2023-03-18T09:15:43.447Z,15.44
2023-03-18T09:18:16.513Z,15.65
2023-03-18T09:20:45.285Z,15.71
2023-03-18T09:23:13.944Z,15.78
2023-03-18T09:25:42.639Z,15.82
2023-03-18T09:28:10.824Z,15.64
2023-03-18T09:30:40.166Z,15.74
2023-03-18T09:33:09.270Z,15.84
2023-03-18T09:35:38.845Z,15.99
2023-03-18T09:38:08.126Z,16.22
2023-03-18T09:40:38.439Z,16.23
2023-03-18T09:43:13.281Z,16.25
2023-03-18T09:45:47.006Z,16.10
2023-03-18T09:48:30.756Z,16.16
2023-03-18T09:51:07.217Z,16.16
2023-03-18T09:53:42.130Z,16.40
2023-03-18T09:56:16.390Z,16.59
2023-03-18T09:58:48.010Z,16.74
2023-03-18T10:01:16.729Z,16.52
2023-03-18T10:03:48.933Z,16.52
2023-03-18T10:06:20.529Z,16.63
2023-03-18T10:08:54.162Z,16.81
2023-03-18T10:11:24.963Z,17.05
2023-03-18T10:14:01.983Z,17.28
2023-03-18T10:16:32.039Z,17.05
2023-03-18T10:19:00.875Z,16.79
2023-03-18T10:21:39.957Z,16.70
2023-03-18T10:24:17.105Z,16.64
2023-03-18T10:26:48.823Z,16.73
2023-03-18T10:29:29.990Z,16.61
2023-03-18T10:32:09.534Z,16.69
2023-03-18T10:34:41.978Z,16.73
2023-03-18T10:37:22.130Z,16.82
2023-03-18T10:39:55.041Z,16.99
2023-03-18T10:42:29.823Z,17.27
2023-03-18T10:45:11.135Z,16.74
2023-03-18T10:47:42.939Z,16.93
2023-03-18T10:50:17.411Z,17.22
2023-03-18T10:52:56.841Z,17.87
2023-03-18T10:55:28.575Z,17.96
2023-03-18T10:57:57.006Z,17.28
2023-03-18T11:00:28.383Z,17.79
2023-03-18T11:02:59.805Z,17.98
2023-03-18T11:05:29.490Z,17.89
2023-03-18T11:08:00.983Z,18.18
2023-03-18T11:10:34.620Z,18.31
2023-03-18T11:13:03.381Z,18.34
2023-03-18T11:15:37.286Z,18.96
2023-03-18T11:18:06.302Z,18.93
2023-03-18T11:20:43.198Z,19.43
2023-03-18T11:23:18.103Z,18.88
2023-03-18T11:25:48.618Z,19.31
2023-03-18T11:28:27.230Z,19.48
2023-03-18T11:30:59.040Z,19.25
2023-03-18T11:33:32.950Z,19.65
2023-03-18T11:36:05.742Z,19.84
2023-03-18T11:38:36.700Z,19.68
2023-03-18T11:41:09.282Z,20.06
2023-03-18T11:43:40.086Z,20.04
2023-03-18T11:46:10.536Z,20.39
2023-03-18T11:48:39.685Z,21.18
2023-03-18T11:51:27.349Z,19.63
2023-03-18T11:54:10.566Z,20.65
2023-03-18T11:56:44.066Z,20.12
2023-03-18T11:59:29.008Z,19.79
2023-03-18T12:02:01.665Z,19.96
2023-03-18T12:04:38.287Z,19.59
2023-03-18T12:07:24.829Z,19.52
2023-03-18T12:10:00.258Z,19.79
2023-03-18T12:12:40.472Z,19.08
2023-03-18T12:15:14.503Z,18.57
2023-03-18T12:17:45.404Z,18.80
2023-03-18T12:20:42.757Z,18.89
2023-03-18T12:23:14.257Z,19.14
2023-03-18T12:26:03.481Z,19.76
2023-03-18T12:28:46.597Z,19.48
2023-03-18T12:31:36.445Z,19.37
2023-03-18T12:34:14.631Z,19.90
2023-03-18T12:36:50.357Z,20.03
2023-03-18T12:39:23.638Z,19.94
2023-03-18T12:42:01.456Z,19.93
2023-03-18T12:44:38.914Z,20.21
2023-03-18T12:47:10.318Z,19.96
2023-03-18T12:49:43.214Z,19.89
2023-03-18T12:52:15.044Z,19.90
2023-03-18T12:54:47.403Z,19.89
2023-03-18T12:57:22.025Z,19.76
2023-03-18T12:59:56.725Z,20.00
2023-03-18T13:02:40.181Z,19.97
2023-03-18T13:05:20.670Z,20.06
2023-03-18T13:07:50.996Z,20.28
2023-03-18T13:10:23.389Z,20.28
2023-03-18T13:12:53.129Z,20.33
2023-03-18T13:15:24.970Z,19.94
2023-03-18T13:17:56.298Z,19.59
2023-03-18T13:20:28.288Z,19.73
2023-03-18T13:23:05.251Z,19.55
2023-03-18T13:25:40.973Z,19.53
2023-03-18T13:28:22.851Z,19.55
2023-03-18T13:30:59.430Z,19.99
2023-03-18T13:33:35.530Z,20.17
2023-03-18T13:36:18.711Z,20.94
2023-03-18T13:38:53.962Z,21.27
2023-03-18T13:41:32.647Z,21.25
2023-03-18T13:44:01.759Z,21.37
2023-03-18T13:46:31.969Z,20.93
2023-03-18T13:49:01.138Z,21.05
2023-03-18T13:51:50.295Z,21.48
2023-03-18T13:54:21.632Z,21.88
2023-03-18T13:56:52.847Z,22.05
2023-03-18T13:59:48.515Z,21.58
2023-03-18T14:02:43.795Z,21.54
2023-03-18T14:05:33.330Z,21.87
2023-03-18T14:08:05.124Z,21.57
2023-03-18T14:10:34.637Z,21.46
2023-03-18T14:13:17.884Z,21.18
2023-03-18T14:15:46.449Z,20.95
2023-03-18T14:18:27.250Z,20.74
2023-03-18T14:21:01.368Z,20.34
2023-03-18T14:23:33.429Z,20.46
2023-03-18T14:26:04.437Z,20.52
2023-03-18T14:28:40.105Z,20.55
2023-03-18T14:31:22.251Z,20.56
2023-03-18T14:33:59.362Z,20.13
2023-03-18T14:36:49.421Z,19.88
2023-03-18T14:39:22.749Z,19.88
2023-03-18T14:41:54.682Z,19.37
2023-03-18T14:44:26.644Z,19.25
2023-03-18T14:46:58.124Z,18.98
2023-03-18T14:49:33.762Z,18.64
2023-03-18T14:52:03.039Z,18.54
2023-03-18T14:54:33.837Z,18.73
2023-03-18T14:57:04.328Z,18.68
2023-03-18T14:59:32.490Z,18.33
2023-03-18T15:02:03.311Z,18.30
2023-03-18T15:04:33.217Z,18.19
2023-03-18T15:07:03.826Z,18.09
2023-03-18T15:09:35.091Z,17.97
2023-03-18T15:12:18.417Z,17.97
2023-03-18T15:14:46.498Z,17.79
2023-03-18T15:17:16.131Z,17.70
2023-03-18T15:19:44.406Z,17.90
2023-03-18T15:22:18.908Z,18.35
2023-03-18T15:24:47.212Z,18.51
2023-03-18T15:27:20.479Z,18.74
2023-03-18T15:29:52.647Z,18.72
2023-03-18T15:32:21.911Z,18.72
2023-03-18T15:34:53.089Z,18.98
2023-03-18T15:37:34.165Z,18.65
2023-03-18T15:40:16.258Z,18.36
2023-03-18T15:42:46.108Z,18.19
2023-03-18T15:45:19.262Z,17.86
2023-03-18T15:47:48.060Z,17.74
2023-03-18T15:50:25.487Z,17.65
2023-03-18T15:53:03.057Z,17.65
2023-03-18T15:55:34.250Z,17.56
2023-03-18T15:58:05.391Z,17.48
2023-03-18T16:00:34.922Z,17.57
2023-03-18T16:03:03.001Z,17.34
2023-03-18T16:05:33.628Z,17.48
2023-03-18T16:08:01.786Z,17.51
2023-03-18T16:10:29.971Z,17.43
2023-03-18T16:13:01.673Z,17.20
2023-03-18T16:15:32.102Z,17.07
2023-03-18T16:18:01.013Z,16.98
2023-03-18T16:20:30.584Z,16.77
2023-03-18T16:22:59.976Z,16.60
2023-03-18T16:25:28.071Z,16.44
2023-03-18T16:28:00.718Z,16.24
2023-03-18T16:30:30.704Z,16.12
2023-03-18T16:33:00.359Z,16.00
2023-03-18T16:35:32.591Z,15.92
2023-03-18T16:38:02.384Z,15.94
2023-03-18T16:40:32.065Z,15.93
2023-03-18T16:43:00.726Z,15.93
2023-03-18T16:45:30.793Z,15.93
2023-03-18T16:48:02.743Z,15.89
2023-03-18T16:50:32.475Z,15.87
2023-03-18T16:53:00.692Z,15.83
2023-03-18T16:55:29.458Z,15.82
2023-03-18T16:57:59.931Z,15.77
2023-03-18T17:00:32.857Z,15.73
2023-03-18T17:03:02.776Z,15.73
2023-03-18T17:05:31.365Z,15.62
2023-03-18T17:08:01.162Z,15.61
2023-03-18T17:10:29.569Z,15.46
2023-03-18T17:12:59.420Z,15.37
2023-03-18T17:15:29.800Z,15.24
2023-03-18T17:17:59.949Z,15.13
2023-03-18T17:20:32.525Z,14.95
2023-03-18T17:23:00.804Z,14.81
2023-03-18T17:25:31.153Z,14.69
2023-03-18T17:28:01.141Z,14.58
2023-03-18T17:30:31.600Z,14.45
2023-03-18T17:33:00.560Z,14.31
2023-03-18T17:35:28.799Z,14.19
2023-03-18T17:37:58.196Z,14.08
2023-03-18T17:40:29.425Z,13.95
2023-03-18T17:42:57.593Z,13.84
2023-03-18T17:45:27.180Z,13.72
2023-03-18T17:47:56.550Z,13.61
2023-03-18T17:50:24.935Z,13.48
2023-03-18T17:52:55.792Z,13.40
2023-03-18T17:55:27.222Z,13.28
2023-03-18T17:57:55.571Z,13.18
2023-03-18T18:00:26.237Z,13.03
2023-03-18T18:02:55.688Z,12.91
2023-03-18T18:05:24.125Z,12.79
2023-03-18T18:07:53.144Z,12.68
2023-03-18T18:10:22.246Z,12.56
2023-03-18T18:12:53.436Z,12.40
2023-03-18T18:15:22.464Z,12.27
2023-03-18T18:17:50.457Z,12.17
2023-03-18T18:20:21.365Z,12.07
2023-03-18T18:22:51.768Z,11.96
2023-03-18T18:25:21.646Z,11.89
2023-03-18T18:27:50.167Z,11.80
2023-03-18T18:30:24.171Z,11.70
2023-03-18T18:32:52.368Z,11.60
2023-03-18T18:35:21.938Z,11.52
2023-03-18T18:37:51.068Z,11.44
2023-03-18T18:40:20.169Z,11.37
2023-03-18T18:42:48.668Z,11.31
2023-03-18T18:45:18.073Z,11.25
2023-03-18T18:47:47.654Z,11.21
2023-03-18T18:50:17.770Z,11.30
2023-03-18T18:52:46.031Z,11.25
2023-03-18T18:55:14.827Z,11.24
2023-03-18T18:57:44.024Z,11.39
2023-03-18T19:00:17.479Z,11.44
2023-03-18T19:02:47.691Z,11.51
2023-03-18T19:05:17.783Z,11.60
2023-03-18T19:07:46.473Z,11.52
2023-03-18T19:10:15.995Z,11.37
2023-03-18T19:12:45.148Z,11.33
2023-03-18T19:15:15.611Z,11.24
2023-03-18T19:17:44.136Z,11.10
2023-03-18T19:20:23.052Z,11.03
2023-03-18T19:22:51.225Z,11.12
2023-03-18T19:25:19.604Z,10.99
2023-03-18T19:27:47.729Z,10.97
2023-03-18T19:30:20.921Z,10.94
2023-03-18T19:32:49.266Z,10.96
2023-03-18T19:35:18.590Z,10.89
2023-03-18T19:37:48.230Z,10.78
2023-03-18T19:40:21.879Z,10.81
2023-03-18T19:42:51.262Z,10.78
2023-03-18T19:45:20.034Z,10.91
2023-03-18T19:47:48.258Z,11.05
2023-03-18T19:50:21.434Z,11.11
2023-03-18T19:52:50.239Z,11.12
2023-03-18T19:55:18.646Z,11.01
2023-03-18T19:57:50.867Z,10.99
2023-03-18T20:00:23.770Z,10.98
2023-03-18T20:02:54.258Z,10.99
2023-03-18T20:05:25.774Z,11.01
2023-03-18T20:07:54.477Z,10.94
2023-03-18T20:10:22.450Z,10.93
2023-03-18T20:12:51.533Z,10.86
2023-03-18T20:15:24.016Z,10.80
2023-03-18T20:17:52.979Z,10.72
2023-03-18T20:20:22.432Z,10.64
2023-03-18T20:22:53.318Z,10.57
2023-03-18T20:25:29.795Z,10.52
2023-03-18T20:27:58.827Z,10.48
2023-03-18T20:30:30.491Z,10.46
2023-03-18T20:33:00.233Z,10.39
2023-03-18T20:35:29.504Z,10.35
2023-03-18T20:38:00.997Z,10.29
2023-03-18T20:40:30.503Z,10.23
2023-03-18T20:42:58.705Z,10.20
2023-03-18T20:45:27.284Z,10.13
2023-03-18T20:47:56.638Z,10.15
2023-03-18T20:50:31.122Z,10.09
2023-03-18T20:53:02.534Z,10.03
2023-03-18T20:55:32.249Z,9.99
2023-03-18T20:58:01.120Z,9.97
2023-03-18T21:00:31.279Z,9.97
2023-03-18T21:03:00.102Z,9.96
2023-03-18T21:05:29.768Z,9.97
2023-03-18T21:07:57.839Z,9.97
2023-03-18T21:10:28.201Z,9.92
2023-03-18T21:12:56.420Z,10.01
2023-03-18T21:15:24.998Z,10.20
2023-03-18T21:17:53.439Z,10.12
2023-03-18T21:20:26.362Z,10.07
2023-03-18T21:22:56.116Z,10.16
2023-03-18T21:25:26.126Z,10.21
2023-03-18T21:27:56.149Z,10.31
2023-03-18T21:30:24.622Z,10.28
2023-03-18T21:32:52.628Z,10.37
2023-03-18T21:35:24.039Z,10.33
2023-03-18T21:37:52.494Z,10.32
2023-03-18T21:40:21.858Z,10.25
2023-03-18T21:42:50.010Z,10.21
2023-03-18T21:45:20.925Z,10.11
2023-03-18T21:47:49.320Z,10.02
2023-03-18T21:50:22.308Z,9.96
2023-03-18T21:52:50.915Z,9.90
2023-03-18T21:55:19.260Z,9.83
2023-03-18T21:57:48.980Z,9.77
2023-03-18T22:00:20.508Z,9.72
2023-03-18T22:02:49.198Z,9.65
2023-03-18T22:05:18.859Z,9.61
2023-03-18T22:07:47.870Z,9.53
2023-03-18T22:10:16.971Z,9.47
2023-03-18T22:12:45.493Z,9.41
2023-03-18T22:15:29.766Z,9.50
2023-03-18T22:17:58.343Z,9.76
2023-03-18T22:20:26.852Z,9.76
2023-03-18T22:22:55.139Z,9.65
2023-03-18T22:25:27.251Z,9.53
2023-03-18T22:27:55.428Z,9.46
2023-03-18T22:30:24.833Z,9.38
2023-03-18T22:32:54.638Z,9.20
2023-03-18T22:35:24.199Z,9.07
2023-03-18T22:37:52.973Z,8.96
2023-03-18T22:40:25.190Z,8.91
2023-03-18T22:42:55.612Z,8.85
2023-03-18T22:45:26.386Z,8.81
2023-03-18T22:47:55.827Z,8.83
2023-03-18T22:50:25.305Z,8.84
2023-03-18T22:52:57.084Z,8.85
2023-03-18T22:55:26.797Z,8.84
2023-03-18T22:57:56.429Z,8.81
2023-03-18T23:00:31.830Z,8.82
2023-03-18T23:03:01.293Z,8.78
2023-03-18T23:05:29.605Z,8.70
2023-03-18T23:07:58.441Z,8.78
2023-03-18T23:10:26.474Z,8.75
2023-03-18T23:12:54.616Z,8.70
2023-03-18T23:15:23.742Z,8.70
2023-03-18T23:17:53.595Z,8.79
2023-03-18T23:20:21.841Z,8.79
2023-03-18T23:22:49.806Z,8.83
2023-03-18T23:25:18.629Z,8.80
2023-03-18T23:27:48.636Z,8.74
2023-03-18T23:30:16.729Z,8.74
2023-03-18T23:32:45.239Z,8.75
2023-03-18T23:35:14.883Z,8.70
2023-03-18T23:37:44.376Z,8.68
2023-03-18T23:40:13.086Z,8.61
2023-03-18T23:42:43.813Z,8.53
2023-03-18T23:45:14.065Z,8.50
2023-03-18T23:47:43.032Z,8.45
2023-03-18T23:50:12.151Z,8.44
2023-03-18T23:52:41.869Z,8.46
2023-03-18T23:55:30.510Z,8.48
2023-03-18T23:57:59.473Z,8.49
